sensor_id;sensor_type;location;lat;lon;timestamp;pressure;altitude;pressure_sealevel;temperature;humidity
1926;BME280;964;42.606;23.588;2022-08-25T00:01:17;94354.41;;;37.28;34.32
1926;BME280;964;42.606;23.588;2022-08-25T00:03:44;94364.06;;;36.90;34.91
1926;BME280;964;42.606;23.588;2022-08-25T00:06:12;94347.44;;;37.54;34.54
1926;BME280;964;42.606;23.588;2022-08-25T00:08:39;94346.84;;;37.87;33.30
1926;BME280;964;42.606;23.588;2022-08-25T00:11:08;94349.69;;;36.92;35.02
1926;BME280;964;42.606;23.588;2022-08-25T00:13:38;94348.00;;;37.20;34.99
1926;BME280;964;42.606;23.588;2022-08-25T00:16:08;94343.09;;;37.13;35.11
1926;BME280;964;42.606;23.588;2022-08-25T00:18:35;94351.06;;;36.85;35.61
1926;BME280;964;42.606;23.588;2022-08-25T00:21:03;94343.16;;;37.40;35.05
1926;BME280;964;42.606;23.588;2022-08-25T00:23:30;94344.78;;;37.74;34.20
1926;BME280;964;42.606;23.588;2022-08-25T00:25:57;94344.06;;;38.00;33.96
1926;BME280;964;42.606;23.588;2022-08-25T00:28:23;94344.84;;;37.43;34.81
1926;BME280;964;42.606;23.588;2022-08-25T00:30:51;94349.28;;;38.04;33.94
1926;BME280;964;42.606;23.588;2022-08-25T00:33:18;94344.38;;;37.57;34.54
1926;BME280;964;42.606;23.588;2022-08-25T00:35:45;94347.69;;;38.21;33.58
1926;BME280;964;42.606;23.588;2022-08-25T00:38:12;94345.00;;;38.42;33.61
1926;BME280;964;42.606;23.588;2022-08-25T00:40:41;94355.16;;;38.00;33.74
1926;BME280;964;42.606;23.588;2022-08-25T00:43:08;94357.03;;;38.32;33.27
1926;BME280;964;42.606;23.588;2022-08-25T00:45:35;94353.66;;;37.73;34.18
1926;BME280;964;42.606;23.588;2022-08-25T00:48:04;94343.41;;;37.68;34.13
1926;BME280;964;42.606;23.588;2022-08-25T00:50:32;94344.94;;;38.08;34.11
1926;BME280;964;42.606;23.588;2022-08-25T00:53:02;94343.94;;;38.32;33.57
1926;BME280;964;42.606;23.588;2022-08-25T00:55:33;94338.31;;;38.11;33.58
1926;BME280;964;42.606;23.588;2022-08-25T00:58:04;94339.59;;;37.71;34.15
1926;BME280;964;42.606;23.588;2022-08-25T01:00:35;94321.72;;;38.11;33.53
1926;BME280;964;42.606;23.588;2022-08-25T01:03:04;94323.84;;;37.79;33.87
1926;BME280;964;42.606;23.588;2022-08-25T01:05:31;94320.28;;;37.39;34.65
1926;BME280;964;42.606;23.588;2022-08-25T01:08:00;94315.66;;;37.02;35.17
1926;BME280;964;42.606;23.588;2022-08-25T01:10:28;94318.84;;;37.51;34.61
1926;BME280;964;42.606;23.588;2022-08-25T01:12:59;94327.88;;;37.91;33.53
1926;BME280;964;42.606;23.588;2022-08-25T01:15:27;94325.13;;;37.78;33.86
1926;BME280;964;42.606;23.588;2022-08-25T01:17:55;94331.50;;;37.73;34.21
1926;BME280;964;42.606;23.588;2022-08-25T01:20:27;94336.50;;;37.48;34.05
1926;BME280;964;42.606;23.588;2022-08-25T01:22:56;94334.03;;;37.45;34.54
1926;BME280;964;42.606;23.588;2022-08-25T01:25:31;94330.66;;;38.04;33.21
1926;BME280;964;42.606;23.588;2022-08-25T01:28:00;94327.63;;;38.42;33.07
1926;BME280;964;42.606;23.588;2022-08-25T01:30:27;94334.00;;;38.50;33.24
1926;BME280;964;42.606;23.588;2022-08-25T01:32:54;94325.56;;;38.55;32.87
1926;BME280;964;42.606;23.588;2022-08-25T01:35:21;94338.50;;;38.26;32.94
1926;BME280;964;42.606;23.588;2022-08-25T01:37:48;94334.72;;;38.97;32.55
1926;BME280;964;42.606;23.588;2022-08-25T01:40:16;94331.59;;;38.67;32.87
1926;BME280;964;42.606;23.588;2022-08-25T01:42:53;94334.25;;;38.25;33.31
1926;BME280;964;42.606;23.588;2022-08-25T01:45:23;94326.13;;;38.54;33.26
1926;BME280;964;42.606;23.588;2022-08-25T01:47:49;94327.16;;;38.64;32.81
1926;BME280;964;42.606;23.588;2022-08-25T01:50:16;94326.88;;;38.75;32.90
1926;BME280;964;42.606;23.588;2022-08-25T01:52:50;94332.03;;;38.71;33.05
1926;BME280;964;42.606;23.588;2022-08-25T01:55:19;94318.22;;;38.58;33.07
1926;BME280;964;42.606;23.588;2022-08-25T01:57:46;94311.66;;;38.35;33.38
1926;BME280;964;42.606;23.588;2022-08-25T02:00:14;94314.69;;;38.10;33.90
1926;BME280;964;42.606;23.588;2022-08-25T02:02:41;94312.47;;;38.09;33.75
1926;BME280;964;42.606;23.588;2022-08-25T02:05:08;94311.16;;;38.23;33.40
1926;BME280;964;42.606;23.588;2022-08-25T02:07:36;94313.00;;;37.94;33.80
1926;BME280;964;42.606;23.588;2022-08-25T02:10:05;94310.66;;;37.59;34.17
1926;BME280;964;42.606;23.588;2022-08-25T02:12:34;94309.59;;;38.14;33.88
1926;BME280;964;42.606;23.588;2022-08-25T02:15:02;94309.31;;;38.25;33.65
1926;BME280;964;42.606;23.588;2022-08-25T02:17:30;94305.03;;;38.38;33.05
1926;BME280;964;42.606;23.588;2022-08-25T02:19:56;94301.50;;;38.03;33.80
1926;BME280;964;42.606;23.588;2022-08-25T02:22:23;94308.63;;;38.12;33.63
1926;BME280;964;42.606;23.588;2022-08-25T02:24:50;94308.78;;;37.35;34.36
1926;BME280;964;42.606;23.588;2022-08-25T02:27:17;94309.06;;;37.63;34.26
1926;BME280;964;42.606;23.588;2022-08-25T02:29:45;94304.91;;;37.57;34.10
1926;BME280;964;42.606;23.588;2022-08-25T02:32:12;94305.75;;;38.04;33.92
1926;BME280;964;42.606;23.588;2022-08-25T02:34:39;94304.94;;;37.96;33.82
1926;BME280;964;42.606;23.588;2022-08-25T02:37:06;94309.44;;;37.28;34.55
1926;BME280;964;42.606;23.588;2022-08-25T02:39:33;94305.94;;;36.96;34.96
1926;BME280;964;42.606;23.588;2022-08-25T02:42:01;94306.25;;;36.92;35.38
1926;BME280;964;42.606;23.588;2022-08-25T02:44:27;94308.56;;;36.56;35.95
1926;BME280;964;42.606;23.588;2022-08-25T02:46:55;94302.69;;;37.10;34.88
1926;BME280;964;42.606;23.588;2022-08-25T02:49:22;94304.41;;;37.13;34.42
1926;BME280;964;42.606;23.588;2022-08-25T02:51:49;94315.66;;;37.02;35.25
1926;BME280;964;42.606;23.588;2022-08-25T02:54:16;94312.16;;;37.60;34.06
1926;BME280;964;42.606;23.588;2022-08-25T02:56:42;94314.31;;;37.35;34.82
1926;BME280;964;42.606;23.588;2022-08-25T02:59:09;94318.03;;;37.11;35.22
1926;BME280;964;42.606;23.588;2022-08-25T03:01:36;94316.53;;;36.60;35.32
1926;BME280;964;42.606;23.588;2022-08-25T03:04:04;94310.56;;;37.06;35.41
1926;BME280;964;42.606;23.588;2022-08-25T03:06:31;94310.81;;;37.21;34.36
1926;BME280;964;42.606;23.588;2022-08-25T03:08:58;94313.63;;;37.61;33.87
1926;BME280;964;42.606;23.588;2022-08-25T03:11:26;94318.53;;;37.68;33.84
1926;BME280;964;42.606;23.588;2022-08-25T03:13:53;94333.28;;;37.44;34.84
1926;BME280;964;42.606;23.588;2022-08-25T03:16:21;94324.47;;;37.72;34.63
1926;BME280;964;42.606;23.588;2022-08-25T03:18:48;94333.84;;;37.56;34.32
1926;BME280;964;42.606;23.588;2022-08-25T03:21:16;94338.19;;;37.06;35.14
1926;BME280;964;42.606;23.588;2022-08-25T03:23:43;94342.97;;;37.06;35.03
1926;BME280;964;42.606;23.588;2022-08-25T03:26:11;94332.53;;;37.30;34.48
1926;BME280;964;42.606;23.588;2022-08-25T03:28:55;94344.50;;;37.78;34.00
1926;BME280;964;42.606;23.588;2022-08-25T03:31:22;94329.38;;;37.79;34.03
1926;BME280;964;42.606;23.588;2022-08-25T03:33:50;94332.34;;;37.68;34.08
1926;BME280;964;42.606;23.588;2022-08-25T03:36:18;94333.84;;;37.82;33.96
1926;BME280;964;42.606;23.588;2022-08-25T03:38:45;94334.72;;;37.77;34.23
1926;BME280;964;42.606;23.588;2022-08-25T03:41:14;94339.13;;;37.41;34.29
1926;BME280;964;42.606;23.588;2022-08-25T03:43:42;94329.97;;;37.32;34.94
1926;BME280;964;42.606;23.588;2022-08-25T03:46:15;94333.41;;;37.52;34.71
1926;BME280;964;42.606;23.588;2022-08-25T03:48:43;94331.09;;;37.69;34.33
1926;BME280;964;42.606;23.588;2022-08-25T03:51:10;94329.38;;;37.79;33.90
1926;BME280;964;42.606;23.588;2022-08-25T03:53:39;94328.63;;;37.92;34.05
1926;BME280;964;42.606;23.588;2022-08-25T03:56:06;94322.38;;;37.78;34.59
1926;BME280;964;42.606;23.588;2022-08-25T03:58:33;94318.66;;;37.17;35.04
1926;BME280;964;42.606;23.588;2022-08-25T04:01:00;94305.44;;;37.55;34.55
1926;BME280;964;42.606;23.588;2022-08-25T04:03:27;94309.31;;;37.20;35.01
1926;BME280;964;42.606;23.588;2022-08-25T04:05:53;94302.50;;;37.34;34.87
1926;BME280;964;42.606;23.588;2022-08-25T04:08:20;94310.88;;;37.74;34.74
1926;BME280;964;42.606;23.588;2022-08-25T04:10:48;94304.72;;;37.81;34.54
1926;BME280;964;42.606;23.588;2022-08-25T04:13:15;94306.81;;;38.01;34.40
1926;BME280;964;42.606;23.588;2022-08-25T04:15:43;94314.78;;;38.18;34.11
1926;BME280;964;42.606;23.588;2022-08-25T04:18:09;94306.31;;;38.50;33.56
1926;BME280;964;42.606;23.588;2022-08-25T04:20:38;94304.91;;;38.09;33.96
1926;BME280;964;42.606;23.588;2022-08-25T04:23:06;94302.66;;;38.55;33.70
1926;BME280;964;42.606;23.588;2022-08-25T04:25:33;94320.66;;;38.14;34.14
1926;BME280;964;42.606;23.588;2022-08-25T04:28:01;94311.38;;;38.59;33.74
1926;BME280;964;42.606;23.588;2022-08-25T04:30:28;94314.41;;;38.48;33.81
1926;BME280;964;42.606;23.588;2022-08-25T04:32:54;94317.41;;;38.50;33.38
1926;BME280;964;42.606;23.588;2022-08-25T04:35:21;94317.56;;;38.65;33.53
1926;BME280;964;42.606;23.588;2022-08-25T04:37:48;94309.94;;;39.41;32.36
1926;BME280;964;42.606;23.588;2022-08-25T04:40:15;94317.66;;;38.93;32.95
1926;BME280;964;42.606;23.588;2022-08-25T04:42:42;94313.28;;;39.18;32.94
1926;BME280;964;42.606;23.588;2022-08-25T04:45:10;94322.59;;;39.29;32.93
1926;BME280;964;42.606;23.588;2022-08-25T04:47:38;94325.06;;;38.78;32.96
1926;BME280;964;42.606;23.588;2022-08-25T04:50:06;94325.31;;;38.33;33.79
1926;BME280;964;42.606;23.588;2022-08-25T04:52:33;94323.16;;;38.25;34.24
1926;BME280;964;42.606;23.588;2022-08-25T04:54:59;94316.09;;;39.26;32.36
1926;BME280;964;42.606;23.588;2022-08-25T04:57:26;94323.19;;;39.14;32.75
1926;BME280;964;42.606;23.588;2022-08-25T04:59:53;94321.84;;;39.49;31.98
1926;BME280;964;42.606;23.588;2022-08-25T05:02:22;94319.47;;;39.53;32.06
1926;BME280;964;42.606;23.588;2022-08-25T05:04:49;94308.28;;;39.38;32.27
1926;BME280;964;42.606;23.588;2022-08-25T05:07:16;94314.66;;;39.74;31.60
1926;BME280;964;42.606;23.588;2022-08-25T05:09:43;94316.25;;;38.66;33.08
1926;BME280;964;42.606;23.588;2022-08-25T05:12:10;94322.69;;;38.61;32.75
1926;BME280;964;42.606;23.588;2022-08-25T05:14:37;94324.69;;;38.40;32.93
1926;BME280;964;42.606;23.588;2022-08-25T05:17:04;94318.47;;;37.42;34.86
1926;BME280;964;42.606;23.588;2022-08-25T05:19:32;94307.75;;;38.17;33.51
1926;BME280;964;42.606;23.588;2022-08-25T05:22:00;94311.56;;;38.27;33.39
1926;BME280;964;42.606;23.588;2022-08-25T05:24:27;94320.03;;;38.89;32.80
1926;BME280;964;42.606;23.588;2022-08-25T05:26:54;94317.59;;;39.06;32.67
1926;BME280;964;42.606;23.588;2022-08-25T05:29:20;94325.66;;;38.63;33.17
1926;BME280;964;42.606;23.588;2022-08-25T05:31:47;94331.91;;;38.29;33.56
1926;BME280;964;42.606;23.588;2022-08-25T05:34:14;94323.66;;;38.84;32.93
1926;BME280;964;42.606;23.588;2022-08-25T05:36:44;94328.13;;;37.67;34.28
1926;BME280;964;42.606;23.588;2022-08-25T05:39:11;94325.94;;;38.25;33.21
1926;BME280;964;42.606;23.588;2022-08-25T05:41:38;94321.44;;;38.49;32.99
1926;BME280;964;42.606;23.588;2022-08-25T05:44:05;94312.31;;;38.95;32.35
1926;BME280;964;42.606;23.588;2022-08-25T05:46:32;94314.38;;;38.82;32.71
1926;BME280;964;42.606;23.588;2022-08-25T05:48:59;94311.63;;;39.44;31.83
1926;BME280;964;42.606;23.588;2022-08-25T05:51:26;94310.31;;;40.01;31.22
1926;BME280;964;42.606;23.588;2022-08-25T05:53:54;94313.22;;;40.16;30.98
1926;BME280;964;42.606;23.588;2022-08-25T05:56:21;94319.53;;;40.25;30.79
1926;BME280;964;42.606;23.588;2022-08-25T05:58:48;94315.91;;;39.73;31.43
1926;BME280;964;42.606;23.588;2022-08-25T06:01:20;94312.66;;;39.90;31.72
1926;BME280;964;42.606;23.588;2022-08-25T06:04:05;94307.94;;;40.05;31.16
1926;BME280;964;42.606;23.588;2022-08-25T06:06:31;94309.25;;;40.12;30.96
1926;BME280;964;42.606;23.588;2022-08-25T06:09:00;94305.41;;;40.66;29.93
1926;BME280;964;42.606;23.588;2022-08-25T06:11:27;94300.25;;;40.19;30.74
1926;BME280;964;42.606;23.588;2022-08-25T06:13:55;94300.16;;;39.96;31.56
1926;BME280;964;42.606;23.588;2022-08-25T06:16:21;94302.47;;;40.13;31.05
1926;BME280;964;42.606;23.588;2022-08-25T06:18:48;94302.97;;;40.55;31.05
1926;BME280;964;42.606;23.588;2022-08-25T06:21:15;94296.13;;;40.56;30.83
1926;BME280;964;42.606;23.588;2022-08-25T06:23:42;94300.84;;;39.89;31.58
1926;BME280;964;42.606;23.588;2022-08-25T06:26:12;94296.75;;;39.90;32.10
1926;BME280;964;42.606;23.588;2022-08-25T06:28:39;94301.91;;;39.86;32.10
1926;BME280;964;42.606;23.588;2022-08-25T06:31:05;94302.91;;;39.96;31.27
1926;BME280;964;42.606;23.588;2022-08-25T06:33:32;94309.84;;;39.82;32.17
1926;BME280;964;42.606;23.588;2022-08-25T06:35:59;94309.13;;;39.82;32.03
1926;BME280;964;42.606;23.588;2022-08-25T06:38:27;94315.09;;;40.22;31.92
1926;BME280;964;42.606;23.588;2022-08-25T06:40:54;94305.66;;;40.83;30.81
1926;BME280;964;42.606;23.588;2022-08-25T06:43:23;94309.59;;;40.37;31.56
1926;BME280;964;42.606;23.588;2022-08-25T06:45:50;94316.00;;;40.68;30.94
1926;BME280;964;42.606;23.588;2022-08-25T06:48:17;94315.28;;;40.90;30.83
1926;BME280;964;42.606;23.588;2022-08-25T06:50:43;94316.84;;;40.47;31.45
1926;BME280;964;42.606;23.588;2022-08-25T06:53:10;94322.66;;;40.64;31.30
1926;BME280;964;42.606;23.588;2022-08-25T06:55:38;94323.06;;;40.84;30.35
1926;BME280;964;42.606;23.588;2022-08-25T06:58:04;94307.19;;;41.45;29.55
1926;BME280;964;42.606;23.588;2022-08-25T07:00:33;94309.16;;;41.90;29.46
1926;BME280;964;42.606;23.588;2022-08-25T07:02:59;94301.06;;;42.32;28.78
1926;BME280;964;42.606;23.588;2022-08-25T07:05:27;94300.72;;;42.68;28.71
1926;BME280;964;42.606;23.588;2022-08-25T07:07:54;94296.09;;;43.20;28.71
1926;BME280;964;42.606;23.588;2022-08-25T07:10:21;94298.84;;;43.03;29.00
1926;BME280;964;42.606;23.588;2022-08-25T07:12:48;94287.13;;;42.96;28.43
1926;BME280;964;42.606;23.588;2022-08-25T07:15:15;94280.91;;;43.55;28.06
1926;BME280;964;42.606;23.588;2022-08-25T07:17:43;94289.91;;;43.04;28.26
1926;BME280;964;42.606;23.588;2022-08-25T07:20:10;94288.13;;;42.91;28.70
1926;BME280;964;42.606;23.588;2022-08-25T07:22:37;94284.38;;;42.64;28.65
1926;BME280;964;42.606;23.588;2022-08-25T07:25:06;94286.94;;;44.20;27.25
1926;BME280;964;42.606;23.588;2022-08-25T07:27:33;94299.28;;;42.91;29.11
1926;BME280;964;42.606;23.588;2022-08-25T07:30:00;94292.56;;;42.22;29.36
1926;BME280;964;42.606;23.588;2022-08-25T07:32:26;94282.13;;;43.44;27.87
1926;BME280;964;42.606;23.588;2022-08-25T07:34:55;94287.25;;;43.31;27.85
1926;BME280;964;42.606;23.588;2022-08-25T07:37:39;94282.84;;;44.04;27.29
1926;BME280;964;42.606;23.588;2022-08-25T07:40:08;94289.56;;;42.92;28.13
1926;BME280;964;42.606;23.588;2022-08-25T07:42:35;94279.13;;;43.50;27.34
1926;BME280;964;42.606;23.588;2022-08-25T07:45:03;94278.16;;;44.07;27.11
1926;BME280;964;42.606;23.588;2022-08-25T07:47:30;94276.00;;;43.46;27.63
1926;BME280;964;42.606;23.588;2022-08-25T07:49:58;94288.16;;;44.10;26.68
1926;BME280;964;42.606;23.588;2022-08-25T07:52:25;94283.25;;;44.18;26.03
1926;BME280;964;42.606;23.588;2022-08-25T07:54:52;94291.56;;;44.08;26.76
1926;BME280;964;42.606;23.588;2022-08-25T07:57:19;94288.31;;;43.60;27.55
1926;BME280;964;42.606;23.588;2022-08-25T07:59:48;94289.22;;;42.88;28.58
1926;BME280;964;42.606;23.588;2022-08-25T08:02:15;94273.88;;;44.06;27.03
1926;BME280;964;42.606;23.588;2022-08-25T08:04:42;94274.41;;;44.38;26.48
1926;BME280;964;42.606;23.588;2022-08-25T08:07:11;94286.38;;;42.71;28.37
1926;BME280;964;42.606;23.588;2022-08-25T08:09:38;94284.16;;;44.37;26.24
1926;BME280;964;42.606;23.588;2022-08-25T08:12:05;94275.09;;;44.73;26.67
1926;BME280;964;42.606;23.588;2022-08-25T08:14:32;94269.63;;;45.39;25.45
1926;BME280;964;42.606;23.588;2022-08-25T08:16:59;94273.72;;;44.65;25.50
1926;BME280;964;42.606;23.588;2022-08-25T08:19:30;94267.41;;;45.37;25.43
1926;BME280;964;42.606;23.588;2022-08-25T08:21:56;94266.66;;;44.03;26.15
1926;BME280;964;42.606;23.588;2022-08-25T08:24:24;94254.66;;;43.92;26.62
1926;BME280;964;42.606;23.588;2022-08-25T08:26:51;94265.31;;;43.52;26.24
1926;BME280;964;42.606;23.588;2022-08-25T08:29:18;94254.34;;;44.23;25.64
1926;BME280;964;42.606;23.588;2022-08-25T08:31:46;94259.66;;;45.18;24.97
1926;BME280;964;42.606;23.588;2022-08-25T08:34:14;94266.31;;;44.60;24.66
1926;BME280;964;42.606;23.588;2022-08-25T08:36:40;94266.63;;;44.90;24.99
1926;BME280;964;42.606;23.588;2022-08-25T08:39:07;94252.38;;;45.42;24.62
1926;BME280;964;42.606;23.588;2022-08-25T08:41:47;94264.38;;;44.79;25.34
1926;BME280;964;42.606;23.588;2022-08-25T08:44:44;94261.03;;;44.90;24.41
1926;BME280;964;42.606;23.588;2022-08-25T08:47:23;94271.81;;;45.40;24.29
1926;BME280;964;42.606;23.588;2022-08-25T08:50:01;94266.47;;;45.25;23.66
1926;BME280;964;42.606;23.588;2022-08-25T08:52:37;94264.19;;;45.50;23.70
1926;BME280;964;42.606;23.588;2022-08-25T08:55:10;94263.19;;;43.94;24.93
1926;BME280;964;42.606;23.588;2022-08-25T08:57:45;94259.41;;;43.48;24.68
1926;BME280;964;42.606;23.588;2022-08-25T09:00:14;94261.25;;;44.75;23.70
1926;BME280;964;42.606;23.588;2022-08-25T09:02:47;94255.44;;;44.37;24.04
1926;BME280;964;42.606;23.588;2022-08-25T09:05:17;94257.63;;;44.12;24.03
1926;BME280;964;42.606;23.588;2022-08-25T09:07:48;94250.19;;;45.04;22.62
1926;BME280;964;42.606;23.588;2022-08-25T09:10:17;94240.00;;;45.45;22.40
1926;BME280;964;42.606;23.588;2022-08-25T09:12:53;94252.72;;;44.73;23.09
1926;BME280;964;42.606;23.588;2022-08-25T09:15:31;94251.03;;;44.00;23.37
1926;BME280;964;42.606;23.588;2022-08-25T09:18:18;94251.28;;;44.55;23.06
1926;BME280;964;42.606;23.588;2022-08-25T09:20:56;94229.56;;;46.32;22.60
1926;BME280;964;42.606;23.588;2022-08-25T09:23:33;94232.13;;;46.68;21.91
1926;BME280;964;42.606;23.588;2022-08-25T09:26:13;94238.56;;;46.21;22.63
1926;BME280;964;42.606;23.588;2022-08-25T09:28:48;94235.91;;;47.23;20.54
1926;BME280;964;42.606;23.588;2022-08-25T09:31:19;94248.13;;;46.37;21.17
1926;BME280;964;42.606;23.588;2022-08-25T09:33:47;94230.81;;;48.16;19.64
1926;BME280;964;42.606;23.588;2022-08-25T09:36:15;94247.97;;;46.35;21.37
1926;BME280;964;42.606;23.588;2022-08-25T09:38:42;94240.03;;;45.83;21.50
1926;BME280;964;42.606;23.588;2022-08-25T09:41:08;94252.69;;;45.46;22.06
1926;BME280;964;42.606;23.588;2022-08-25T09:43:39;94235.78;;;45.82;21.44
1926;BME280;964;42.606;23.588;2022-08-25T09:46:13;94245.59;;;47.01;20.82
1926;BME280;964;42.606;23.588;2022-08-25T09:48:46;94251.13;;;45.26;22.29
1926;BME280;964;42.606;23.588;2022-08-25T09:51:19;94235.16;;;46.32;21.88
1926;BME280;964;42.606;23.588;2022-08-25T09:53:51;94245.19;;;45.03;22.63
1926;BME280;964;42.606;23.588;2022-08-25T09:56:19;94245.44;;;44.61;22.67
1926;BME280;964;42.606;23.588;2022-08-25T09:58:47;94249.97;;;43.95;24.29
1926;BME280;964;42.606;23.588;2022-08-25T10:01:17;94257.66;;;42.86;24.68
1926;BME280;964;42.606;23.588;2022-08-25T10:04:03;94260.66;;;43.72;23.97
1926;BME280;964;42.606;23.588;2022-08-25T10:06:34;94247.00;;;44.54;22.87
1926;BME280;964;42.606;23.588;2022-08-25T10:09:07;94250.06;;;43.87;23.77
1926;BME280;964;42.606;23.588;2022-08-25T10:11:41;94249.72;;;43.66;24.21
1926;BME280;964;42.606;23.588;2022-08-25T10:14:19;94249.06;;;43.41;23.93
1926;BME280;964;42.606;23.588;2022-08-25T10:16:48;94233.88;;;45.75;22.69
1926;BME280;964;42.606;23.588;2022-08-25T10:19:23;94228.81;;;46.41;21.59
1926;BME280;964;42.606;23.588;2022-08-25T10:22:08;94215.22;;;47.18;21.61
1926;BME280;964;42.606;23.588;2022-08-25T10:24:37;94209.69;;;47.51;21.03
1926;BME280;964;42.606;23.588;2022-08-25T10:27:28;94214.25;;;47.04;21.70
1926;BME280;964;42.606;23.588;2022-08-25T10:30:19;94214.84;;;46.12;22.39
1926;BME280;964;42.606;23.588;2022-08-25T10:33:08;94201.31;;;48.05;21.12
1926;BME280;964;42.606;23.588;2022-08-25T10:35:47;94193.59;;;47.52;21.99
1926;BME280;964;42.606;23.588;2022-08-25T10:38:28;94212.31;;;46.26;21.88
1926;BME280;964;42.606;23.588;2022-08-25T10:41:02;94220.47;;;44.02;23.52
1926;BME280;964;42.606;23.588;2022-08-25T10:43:34;94220.69;;;44.13;23.68
1926;BME280;964;42.606;23.588;2022-08-25T10:46:10;94234.28;;;43.65;24.30
1926;BME280;964;42.606;23.588;2022-08-25T10:48:49;94204.66;;;45.98;22.63
1926;BME280;964;42.606;23.588;2022-08-25T10:51:30;94209.59;;;45.13;22.91
1926;BME280;964;42.606;23.588;2022-08-25T10:54:04;94200.53;;;47.30;21.38
1926;BME280;964;42.606;23.588;2022-08-25T10:56:35;94198.34;;;47.70;20.37
1926;BME280;964;42.606;23.588;2022-08-25T10:59:29;94196.91;;;46.46;21.09
1926;BME280;964;42.606;23.588;2022-08-25T11:02:18;94206.16;;;45.79;22.14
1926;BME280;964;42.606;23.588;2022-08-25T11:04:58;94210.41;;;44.96;22.07
1926;BME280;964;42.606;23.588;2022-08-25T11:07:31;94186.56;;;47.20;21.30
1926;BME280;964;42.606;23.588;2022-08-25T11:10:02;94183.38;;;46.83;20.35
1926;BME280;964;42.606;23.588;2022-08-25T11:12:33;94177.00;;;47.35;20.78
1926;BME280;964;42.606;23.588;2022-08-25T11:15:06;94166.34;;;48.41;19.75
1926;BME280;964;42.606;23.588;2022-08-25T11:17:40;94167.69;;;48.52;19.54
1926;BME280;964;42.606;23.588;2022-08-25T11:20:15;94176.25;;;46.51;21.19
1926;BME280;964;42.606;23.588;2022-08-25T11:22:45;94175.25;;;45.12;22.09
1926;BME280;964;42.606;23.588;2022-08-25T11:25:16;94174.59;;;45.50;21.73
1926;BME280;964;42.606;23.588;2022-08-25T11:27:48;94167.31;;;46.64;21.24
1926;BME280;964;42.606;23.588;2022-08-25T11:30:18;94160.63;;;47.10;21.06
1926;BME280;964;42.606;23.588;2022-08-25T11:32:48;94156.25;;;46.66;21.36
1926;BME280;964;42.606;23.588;2022-08-25T11:35:19;94155.28;;;47.56;21.27
1926;BME280;964;42.606;23.588;2022-08-25T11:38:00;94138.56;;;48.47;19.76
1926;BME280;964;42.606;23.588;2022-08-25T11:40:51;94133.41;;;47.88;19.93
1926;BME280;964;42.606;23.588;2022-08-25T11:43:36;94129.53;;;49.07;19.95
1926;BME280;964;42.606;23.588;2022-08-25T11:46:24;94130.81;;;48.13;19.97
1926;BME280;964;42.606;23.588;2022-08-25T11:49:02;94131.59;;;48.95;19.64
1926;BME280;964;42.606;23.588;2022-08-25T11:51:39;94123.34;;;49.71;18.87
1926;BME280;964;42.606;23.588;2022-08-25T11:54:16;94124.44;;;49.40;19.12
1926;BME280;964;42.606;23.588;2022-08-25T11:56:51;94146.28;;;46.85;20.36
1926;BME280;964;42.606;23.588;2022-08-25T12:02:30;94138.44;;;47.56;20.26
1926;BME280;964;42.606;23.588;2022-08-25T12:04:58;94136.78;;;48.07;20.16
1926;BME280;964;42.606;23.588;2022-08-25T12:07:29;94138.50;;;48.24;19.80
1926;BME280;964;42.606;23.588;2022-08-25T12:10:12;94131.84;;;48.87;19.20
1926;BME280;964;42.606;23.588;2022-08-25T12:13:03;94126.34;;;47.87;20.02
1926;BME280;964;42.606;23.588;2022-08-25T12:15:58;94122.56;;;48.85;19.45
1926;BME280;964;42.606;23.588;2022-08-25T12:18:46;94130.31;;;48.05;19.92
1926;BME280;964;42.606;23.588;2022-08-25T12:21:29;94141.16;;;46.31;21.47
1926;BME280;964;42.606;23.588;2022-08-25T12:24:12;94139.47;;;45.88;21.61
1926;BME280;964;42.606;23.588;2022-08-25T12:26:54;94148.69;;;44.94;22.23
1926;BME280;964;42.606;23.588;2022-08-25T12:29:38;94146.56;;;46.89;20.65
1926;BME280;964;42.606;23.588;2022-08-25T12:32:37;94140.31;;;48.99;19.72
1926;BME280;964;42.606;23.588;2022-08-25T12:35:22;94146.97;;;47.80;19.58
1926;BME280;964;42.606;23.588;2022-08-25T12:38:00;94150.03;;;46.68;20.45
1926;BME280;964;42.606;23.588;2022-08-25T12:40:33;94150.47;;;46.24;21.01
1926;BME280;964;42.606;23.588;2022-08-25T12:43:04;94139.50;;;45.78;21.22
1926;BME280;964;42.606;23.588;2022-08-25T12:45:38;94141.53;;;46.16;21.86
1926;BME280;964;42.606;23.588;2022-08-25T12:48:52;94136.28;;;47.45;20.27
1926;BME280;964;42.606;23.588;2022-08-25T12:51:23;94139.16;;;47.14;20.88
1926;BME280;964;42.606;23.588;2022-08-25T12:53:52;94143.00;;;45.02;22.07
1926;BME280;964;42.606;23.588;2022-08-25T12:56:29;94153.53;;;44.94;22.09
1926;BME280;964;42.606;23.588;2022-08-25T12:59:11;94158.81;;;44.17;22.70
1926;BME280;964;42.606;23.588;2022-08-25T13:01:57;94160.25;;;44.71;22.33
1926;BME280;964;42.606;23.588;2022-08-25T13:04:52;94143.69;;;46.67;21.50
1926;BME280;964;42.606;23.588;2022-08-25T13:07:33;94139.56;;;46.68;20.84
1926;BME280;964;42.606;23.588;2022-08-25T13:10:24;94144.19;;;47.58;20.07
1926;BME280;964;42.606;23.588;2022-08-25T13:12:59;94150.88;;;46.80;21.14
1926;BME280;964;42.606;23.588;2022-08-25T13:15:36;94146.25;;;46.04;21.22
1926;BME280;964;42.606;23.588;2022-08-25T13:18:19;94145.84;;;45.88;21.95
1926;BME280;964;42.606;23.588;2022-08-25T13:20:47;94144.59;;;47.22;21.20
1926;BME280;964;42.606;23.588;2022-08-25T13:23:17;94145.50;;;46.63;20.85
1926;BME280;964;42.606;23.588;2022-08-25T13:25:48;94143.50;;;46.75;20.24
1926;BME280;964;42.606;23.588;2022-08-25T13:28:22;94153.09;;;46.41;20.86
1926;BME280;964;42.606;23.588;2022-08-25T13:30:59;94157.00;;;44.65;22.54
1926;BME280;964;42.606;23.588;2022-08-25T13:33:27;94163.47;;;44.05;23.02
1926;BME280;964;42.606;23.588;2022-08-25T13:35:55;94165.81;;;44.25;23.05
1926;BME280;964;42.606;23.588;2022-08-25T13:38:36;94160.34;;;44.01;23.57
1926;BME280;964;42.606;23.588;2022-08-25T13:41:04;94159.00;;;44.02;22.97
1926;BME280;964;42.606;23.588;2022-08-25T13:43:33;94160.75;;;44.51;22.75
1926;BME280;964;42.606;23.588;2022-08-25T13:46:00;94167.03;;;44.68;22.95